sensor_id;sensor_type;location;lat;lon;timestamp;P1;durP1;ratioP1;P2;durP2;ratioP2
28762;SDS011;15918;51.270;6.522;2023-08-06T00:00:04;4.40;;;2.85;;
28762;SDS011;15918;51.270;6.522;2023-08-06T00:02:30;4.00;;;3.00;;
28762;SDS011;15918;51.270;6.522;2023-08-06T00:04:55;4.70;;;3.00;;
28762;SDS011;15918;51.270;6.522;2023-08-06T00:07:21;3.90;;;3.25;;
28762;SDS011;15918;51.270;6.522;2023-08-06T00:09:46;3.38;;;3.03;;
28762;SDS011;15918;51.270;6.522;2023-08-06T00:12:12;4.30;;;3.20;;
28762;SDS011;15918;51.270;6.522;2023-08-06T00:14:38;3.00;;;2.72;;
28762;SDS011;15918;51.270;6.522;2023-08-06T00:17:03;3.47;;;3.10;;
28762;SDS011;15918;51.270;6.522;2023-08-06T00:19:30;5.32;;;3.67;;
28762;SDS011;15918;51.270;6.522;2023-08-06T00:21:56;5.25;;;3.15;;
28762;SDS011;15918;51.270;6.522;2023-08-06T00:24:23;5.82;;;3.42;;
28762;SDS011;15918;51.270;6.522;2023-08-06T00:26:49;4.90;;;3.15;;
28762;SDS011;15918;51.270;6.522;2023-08-06T00:29:15;4.32;;;2.97;;
28762;SDS011;15918;51.270;6.522;2023-08-06T00:31:40;9.15;;;3.50;;
28762;SDS011;15918;51.270;6.522;2023-08-06T00:34:06;3.95;;;2.80;;
28762;SDS011;15918;51.270;6.522;2023-08-06T00:36:32;6.32;;;3.08;;
28762;SDS011;15918;51.270;6.522;2023-08-06T00:38:57;4.40;;;3.45;;
28762;SDS011;15918;51.270;6.522;2023-08-06T00:41:23;5.38;;;3.75;;
28762;SDS011;15918;51.270;6.522;2023-08-06T00:43:48;5.63;;;3.17;;
28762;SDS011;15918;51.270;6.522;2023-08-06T00:46:14;7.05;;;3.95;;
28762;SDS011;15918;51.270;6.522;2023-08-06T00:48:40;4.78;;;3.35;;
28762;SDS011;15918;51.270;6.522;2023-08-06T00:51:06;5.78;;;3.17;;
28762;SDS011;15918;51.270;6.522;2023-08-06T00:53:35;4.28;;;3.17;;
28762;SDS011;15918;51.270;6.522;2023-08-06T00:56:02;4.07;;;3.25;;
28762;SDS011;15918;51.270;6.522;2023-08-06T00:58:27;6.07;;;3.10;;
28762;SDS011;15918;51.270;6.522;2023-08-06T01:00:53;4.93;;;3.22;;
28762;SDS011;15918;51.270;6.522;2023-08-06T01:03:19;6.10;;;3.17;;
28762;SDS011;15918;51.270;6.522;2023-08-06T01:05:45;4.05;;;3.20;;
28762;SDS011;15918;51.270;6.522;2023-08-06T01:14:02;4.38;;;3.50;;
28762;SDS011;15918;51.270;6.522;2023-08-06T01:16:11;4.45;;;3.58;;
28762;SDS011;15918;51.270;6.522;2023-08-06T01:18:46;4.63;;;3.45;;
28762;SDS011;15918;51.270;6.522;2023-08-06T01:21:14;5.53;;;3.97;;
28762;SDS011;15918;51.270;6.522;2023-08-06T01:23:41;3.33;;;3.03;;
28762;SDS011;15918;51.270;6.522;2023-08-06T01:26:13;5.97;;;3.20;;
28762;SDS011;15918;51.270;6.522;2023-08-06T01:29:17;5.23;;;2.93;;
28762;SDS011;15918;51.270;6.522;2023-08-06T01:31:39;4.63;;;3.40;;
28762;SDS011;15918;51.270;6.522;2023-08-06T01:34:10;4.70;;;3.40;;
28762;SDS011;15918;51.270;6.522;2023-08-06T01:36:41;3.63;;;3.30;;
28762;SDS011;15918;51.270;6.522;2023-08-06T01:39:07;5.45;;;3.38;;
28762;SDS011;15918;51.270;6.522;2023-08-06T01:41:33;4.05;;;3.33;;
28762;SDS011;15918;51.270;6.522;2023-08-06T01:43:59;4.97;;;3.95;;
28762;SDS011;15918;51.270;6.522;2023-08-06T01:46:24;5.82;;;3.17;;
28762;SDS011;15918;51.270;6.522;2023-08-06T01:48:50;5.13;;;3.17;;
28762;SDS011;15918;51.270;6.522;2023-08-06T01:51:16;5.32;;;3.42;;
28762;SDS011;15918;51.270;6.522;2023-08-06T01:53:41;3.95;;;3.38;;
28762;SDS011;15918;51.270;6.522;2023-08-06T01:56:07;10.40;;;4.30;;
28762;SDS011;15918;51.270;6.522;2023-08-06T01:58:32;5.70;;;3.65;;
28762;SDS011;15918;51.270;6.522;2023-08-06T02:00:58;5.00;;;3.47;;
28762;SDS011;15918;51.270;6.522;2023-08-06T02:03:23;3.72;;;3.20;;
28762;SDS011;15918;51.270;6.522;2023-08-06T02:05:49;5.03;;;3.28;;
28762;SDS011;15918;51.270;6.522;2023-08-06T02:08:15;3.42;;;2.95;;
28762;SDS011;15918;51.270;6.522;2023-08-06T02:10:40;6.38;;;3.28;;
28762;SDS011;15918;51.270;6.522;2023-08-06T02:13:06;5.60;;;3.03;;
28762;SDS011;15918;51.270;6.522;2023-08-06T02:15:32;4.25;;;2.95;;
28762;SDS011;15918;51.270;6.522;2023-08-06T02:17:57;4.53;;;3.00;;
28762;SDS011;15918;51.270;6.522;2023-08-06T02:20:23;5.80;;;3.58;;
28762;SDS011;15918;51.270;6.522;2023-08-06T02:22:49;5.15;;;3.10;;
28762;SDS011;15918;51.270;6.522;2023-08-06T02:25:14;3.95;;;3.50;;
28762;SDS011;15918;51.270;6.522;2023-08-06T02:27:40;3.70;;;2.80;;
28762;SDS011;15918;51.270;6.522;2023-08-06T02:30:06;4.78;;;3.08;;
28762;SDS011;15918;51.270;6.522;2023-08-06T02:32:32;2.97;;;2.45;;
28762;SDS011;15918;51.270;6.522;2023-08-06T02:35:00;3.72;;;2.95;;
28762;SDS011;15918;51.270;6.522;2023-08-06T02:37:27;5.45;;;3.28;;
28762;SDS011;15918;51.270;6.522;2023-08-06T02:39:52;4.22;;;3.00;;
28762;SDS011;15918;51.270;6.522;2023-08-06T02:42:18;3.30;;;3.00;;
28762;SDS011;15918;51.270;6.522;2023-08-06T02:44:43;3.53;;;3.22;;
28762;SDS011;15918;51.270;6.522;2023-08-06T02:47:09;4.35;;;3.03;;
28762;SDS011;15918;51.270;6.522;2023-08-06T02:49:34;4.32;;;2.95;;
28762;SDS011;15918;51.270;6.522;2023-08-06T02:52:00;4.60;;;2.90;;
28762;SDS011;15918;51.270;6.522;2023-08-06T02:54:26;6.53;;;3.05;;
28762;SDS011;15918;51.270;6.522;2023-08-06T02:56:51;4.03;;;3.00;;
28762;SDS011;15918;51.270;6.522;2023-08-06T02:59:17;4.35;;;2.88;;
28762;SDS011;15918;51.270;6.522;2023-08-06T03:01:42;3.42;;;3.13;;
28762;SDS011;15918;51.270;6.522;2023-08-06T03:04:08;5.82;;;3.10;;
28762;SDS011;15918;51.270;6.522;2023-08-06T03:06:33;3.38;;;3.08;;
28762;SDS011;15918;51.270;6.522;2023-08-06T03:08:59;5.50;;;3.20;;
28762;SDS011;15918;51.270;6.522;2023-08-06T03:11:24;3.25;;;2.95;;
28762;SDS011;15918;51.270;6.522;2023-08-06T03:13:50;3.75;;;3.00;;
28762;SDS011;15918;51.270;6.522;2023-08-06T03:16:15;4.45;;;3.20;;
28762;SDS011;15918;51.270;6.522;2023-08-06T03:18:41;3.65;;;3.10;;
28762;SDS011;15918;51.270;6.522;2023-08-06T03:21:07;3.67;;;3.13;;
28762;SDS011;15918;51.270;6.522;2023-08-06T03:23:32;5.78;;;2.90;;
28762;SDS011;15918;51.270;6.522;2023-08-06T03:26:01;5.47;;;3.22;;
28762;SDS011;15918;51.270;6.522;2023-08-06T03:28:28;3.50;;;3.20;;
28762;SDS011;15918;51.270;6.522;2023-08-06T03:31:00;3.97;;;3.03;;
28762;SDS011;15918;51.270;6.522;2023-08-06T03:33:26;4.40;;;3.10;;
28762;SDS011;15918;51.270;6.522;2023-08-06T03:35:52;4.00;;;3.45;;
28762;SDS011;15918;51.270;6.522;2023-08-06T03:38:17;3.47;;;3.03;;
28762;SDS011;15918;51.270;6.522;2023-08-06T03:40:43;6.68;;;3.30;;
28762;SDS011;15918;51.270;6.522;2023-08-06T03:43:08;4.43;;;2.83;;
28762;SDS011;15918;51.270;6.522;2023-08-06T03:45:34;3.97;;;3.20;;
28762;SDS011;15918;51.270;6.522;2023-08-06T03:47:59;4.07;;;3.30;;
28762;SDS011;15918;51.270;6.522;2023-08-06T03:50:25;3.38;;;3.05;;
28762;SDS011;15918;51.270;6.522;2023-08-06T03:52:51;5.28;;;3.08;;
28762;SDS011;15918;51.270;6.522;2023-08-06T03:55:16;5.65;;;2.92;;
28762;SDS011;15918;51.270;6.522;2023-08-06T03:57:42;3.50;;;3.15;;
28762;SDS011;15918;51.270;6.522;2023-08-06T04:00:07;6.15;;;3.28;;
28762;SDS011;15918;51.270;6.522;2023-08-06T04:02:33;5.35;;;3.47;;
28762;SDS011;15918;51.270;6.522;2023-08-06T04:05:00;5.10;;;3.22;;
28762;SDS011;15918;51.270;6.522;2023-08-06T04:07:26;4.82;;;3.30;;
28762;SDS011;15918;51.270;6.522;2023-08-06T04:09:52;6.45;;;3.13;;
28762;SDS011;15918;51.270;6.522;2023-08-06T04:12:18;3.45;;;3.03;;
28762;SDS011;15918;51.270;6.522;2023-08-06T04:14:44;3.47;;;3.15;;
28762;SDS011;15918;51.270;6.522;2023-08-06T04:17:10;3.83;;;3.15;;
28762;SDS011;15918;51.270;6.522;2023-08-06T04:19:35;4.55;;;2.80;;
28762;SDS011;15918;51.270;6.522;2023-08-06T04:22:01;4.72;;;2.85;;
28762;SDS011;15918;51.270;6.522;2023-08-06T04:24:26;3.20;;;2.90;;
28762;SDS011;15918;51.270;6.522;2023-08-06T04:26:52;4.88;;;3.00;;
28762;SDS011;15918;51.270;6.522;2023-08-06T04:29:18;3.83;;;2.83;;
28762;SDS011;15918;51.270;6.522;2023-08-06T04:31:43;5.07;;;3.13;;
28762;SDS011;15918;51.270;6.522;2023-08-06T04:34:09;4.32;;;2.75;;
28762;SDS011;15918;51.270;6.522;2023-08-06T04:36:34;3.65;;;3.17;;
28762;SDS011;15918;51.270;6.522;2023-08-06T04:39:00;3.42;;;3.13;;
28762;SDS011;15918;51.270;6.522;2023-08-06T04:41:25;3.90;;;3.50;;
28762;SDS011;15918;51.270;6.522;2023-08-06T04:43:51;3.65;;;3.33;;
28762;SDS011;15918;51.270;6.522;2023-08-06T04:46:16;6.53;;;3.28;;
28762;SDS011;15918;51.270;6.522;2023-08-06T04:48:42;3.55;;;3.25;;
28762;SDS011;15918;51.270;6.522;2023-08-06T04:51:08;5.78;;;3.53;;
28762;SDS011;15918;51.270;6.522;2023-08-06T04:53:33;5.20;;;3.38;;
28762;SDS011;15918;51.270;6.522;2023-08-06T04:55:59;4.07;;;3.05;;
28762;SDS011;15918;51.270;6.522;2023-08-06T04:58:24;5.55;;;4.03;;
28762;SDS011;15918;51.270;6.522;2023-08-06T05:00:50;4.82;;;4.40;;
28762;SDS011;15918;51.270;6.522;2023-08-06T05:03:15;4.30;;;3.55;;
28762;SDS011;15918;51.270;6.522;2023-08-06T05:05:41;3.92;;;3.63;;
28762;SDS011;15918;51.270;6.522;2023-08-06T05:08:07;5.07;;;4.25;;
28762;SDS011;15918;51.270;6.522;2023-08-06T05:10:32;5.50;;;4.13;;
28762;SDS011;15918;51.270;6.522;2023-08-06T05:12:58;5.70;;;3.70;;
28762;SDS011;15918;51.270;6.522;2023-08-06T05:15:23;4.90;;;3.65;;
28762;SDS011;15918;51.270;6.522;2023-08-06T05:17:50;6.82;;;3.88;;
28762;SDS011;15918;51.270;6.522;2023-08-06T05:20:16;4.93;;;3.90;;
28762;SDS011;15918;51.270;6.522;2023-08-06T05:22:42;4.97;;;3.88;;
28762;SDS011;15918;51.270;6.522;2023-08-06T05:25:08;5.50;;;3.80;;
28762;SDS011;15918;51.270;6.522;2023-08-06T05:27:33;4.35;;;3.55;;
28762;SDS011;15918;51.270;6.522;2023-08-06T05:29:59;5.03;;;3.80;;
28762;SDS011;15918;51.270;6.522;2023-08-06T05:32:25;3.90;;;3.33;;
28762;SDS011;15918;51.270;6.522;2023-08-06T05:34:50;3.92;;;3.17;;
28762;SDS011;15918;51.270;6.522;2023-08-06T05:37:16;4.97;;;3.13;;
28762;SDS011;15918;51.270;6.522;2023-08-06T05:39:42;3.45;;;3.08;;
28762;SDS011;15918;51.270;6.522;2023-08-06T05:42:07;5.57;;;3.00;;
28762;SDS011;15918;51.270;6.522;2023-08-06T05:44:33;5.35;;;3.35;;
28762;SDS011;15918;51.270;6.522;2023-08-06T05:46:58;4.18;;;3.65;;
28762;SDS011;15918;51.270;6.522;2023-08-06T05:49:24;4.97;;;2.97;;
28762;SDS011;15918;51.270;6.522;2023-08-06T05:51:50;4.13;;;3.25;;
28762;SDS011;15918;51.270;6.522;2023-08-06T05:54:18;3.15;;;2.85;;
28762;SDS011;15918;51.270;6.522;2023-08-06T05:56:43;4.15;;;3.17;;
28762;SDS011;15918;51.270;6.522;2023-08-06T05:59:09;4.70;;;2.90;;
28762;SDS011;15918;51.270;6.522;2023-08-06T06:01:34;3.17;;;2.88;;
28762;SDS011;15918;51.270;6.522;2023-08-06T06:04:00;4.25;;;3.25;;
28762;SDS011;15918;51.270;6.522;2023-08-06T06:06:26;3.10;;;2.80;;
28762;SDS011;15918;51.270;6.522;2023-08-06T06:08:51;4.53;;;2.88;;
28762;SDS011;15918;51.270;6.522;2023-08-06T06:11:17;3.33;;;2.78;;
28762;SDS011;15918;51.270;6.522;2023-08-06T06:13:46;3.28;;;2.47;;
28762;SDS011;15918;51.270;6.522;2023-08-06T06:16:13;3.40;;;2.97;;
28762;SDS011;15918;51.270;6.522;2023-08-06T06:18:38;3.40;;;2.50;;
28762;SDS011;15918;51.270;6.522;2023-08-06T06:21:04;3.40;;;3.10;;
28762;SDS011;15918;51.270;6.522;2023-08-06T06:23:29;2.80;;;2.03;;
28762;SDS011;15918;51.270;6.522;2023-08-06T06:25:55;5.40;;;2.42;;
28762;SDS011;15918;51.270;6.522;2023-08-06T06:28:21;4.90;;;2.28;;
28762;SDS011;15918;51.270;6.522;2023-08-06T06:30:46;4.55;;;2.10;;
28762;SDS011;15918;51.270;6.522;2023-08-06T06:33:13;4.30;;;1.95;;
28762;SDS011;15918;51.270;6.522;2023-08-06T06:35:38;4.50;;;2.45;;
28762;SDS011;15918;51.270;6.522;2023-08-06T06:38:04;3.33;;;1.90;;
28762;SDS011;15918;51.270;6.522;2023-08-06T06:40:29;2.85;;;2.03;;
28762;SDS011;15918;51.270;6.522;2023-08-06T06:42:55;2.60;;;1.85;;
28762;SDS011;15918;51.270;6.522;2023-08-06T06:45:21;3.75;;;2.13;;
28762;SDS011;15918;51.270;6.522;2023-08-06T06:47:46;3.50;;;1.90;;
28762;SDS011;15918;51.270;6.522;2023-08-06T06:50:12;3.72;;;2.13;;
28762;SDS011;15918;51.270;6.522;2023-08-06T06:52:37;3.83;;;2.50;;
28762;SDS011;15918;51.270;6.522;2023-08-06T06:55:03;3.17;;;2.35;;
28762;SDS011;15918;51.270;6.522;2023-08-06T06:57:29;4.97;;;2.45;;
28762;SDS011;15918;51.270;6.522;2023-08-06T06:59:55;3.28;;;2.55;;
28762;SDS011;15918;51.270;6.522;2023-08-06T07:02:20;7.70;;;2.67;;
28762;SDS011;15918;51.270;6.522;2023-08-06T07:04:46;4.63;;;2.60;;
28762;SDS011;15918;51.270;6.522;2023-08-06T07:07:12;3.63;;;2.50;;
28762;SDS011;15918;51.270;6.522;2023-08-06T07:09:37;3.67;;;3.13;;
28762;SDS011;15918;51.270;6.522;2023-08-06T07:12:03;4.57;;;2.38;;
28762;SDS011;15918;51.270;6.522;2023-08-06T07:14:29;4.07;;;2.95;;
28762;SDS011;15918;51.270;6.522;2023-08-06T07:16:55;4.88;;;2.90;;
28762;SDS011;15918;51.270;6.522;2023-08-06T07:19:20;5.28;;;2.78;;
28762;SDS011;15918;51.270;6.522;2023-08-06T07:21:46;3.35;;;2.40;;
28762;SDS011;15918;51.270;6.522;2023-08-06T07:24:11;3.33;;;3.03;;
28762;SDS011;15918;51.270;6.522;2023-08-06T07:26:37;5.55;;;3.05;;
28762;SDS011;15918;51.270;6.522;2023-08-06T07:29:03;6.25;;;3.60;;
28762;SDS011;15918;51.270;6.522;2023-08-06T07:31:29;4.15;;;3.38;;
28762;SDS011;15918;51.270;6.522;2023-08-06T07:33:54;5.55;;;4.47;;
28762;SDS011;15918;51.270;6.522;2023-08-06T07:36:20;4.50;;;4.10;;
28762;SDS011;15918;51.270;6.522;2023-08-06T07:38:45;5.22;;;4.07;;
28762;SDS011;15918;51.270;6.522;2023-08-06T07:41:12;6.32;;;4.05;;
28762;SDS011;15918;51.270;6.522;2023-08-06T07:43:37;5.25;;;3.65;;
28762;SDS011;15918;51.270;6.522;2023-08-06T07:46:03;6.47;;;3.78;;
28762;SDS011;15918;51.270;6.522;2023-08-06T07:48:29;5.35;;;3.55;;
28762;SDS011;15918;51.270;6.522;2023-08-06T07:50:55;7.25;;;4.00;;
28762;SDS011;15918;51.270;6.522;2023-08-06T07:53:21;3.95;;;3.58;;
28762;SDS011;15918;51.270;6.522;2023-08-06T07:55:48;4.28;;;3.88;;
28762;SDS011;15918;51.270;6.522;2023-08-06T07:58:15;4.40;;;3.85;;
28762;SDS011;15918;51.270;6.522;2023-08-06T08:00:41;5.63;;;3.33;;
28762;SDS011;15918;51.270;6.522;2023-08-06T08:03:10;5.18;;;4.10;;
28762;SDS011;15918;51.270;6.522;2023-08-06T08:05:39;4.18;;;3.63;;
28762;SDS011;15918;51.270;6.522;2023-08-06T08:08:05;3.72;;;3.33;;
28762;SDS011;15918;51.270;6.522;2023-08-06T08:10:31;3.47;;;3.17;;
28762;SDS011;15918;51.270;6.522;2023-08-06T08:12:57;4.57;;;3.55;;
28762;SDS011;15918;51.270;6.522;2023-08-06T08:15:24;4.55;;;3.53;;
28762;SDS011;15918;51.270;6.522;2023-08-06T08:17:51;3.67;;;2.90;;
28762;SDS011;15918;51.270;6.522;2023-08-06T08:20:17;3.80;;;3.00;;
28762;SDS011;15918;51.270;6.522;2023-08-06T08:22:43;3.67;;;3.35;;
28762;SDS011;15918;51.270;6.522;2023-08-06T08:25:08;4.30;;;3.05;;
28762;SDS011;15918;51.270;6.522;2023-08-06T08:27:34;4.25;;;3.50;;
28762;SDS011;15918;51.270;6.522;2023-08-06T08:29:59;3.72;;;3.25;;
28762;SDS011;15918;51.270;6.522;2023-08-06T08:32:25;4.50;;;3.60;;
28762;SDS011;15918;51.270;6.522;2023-08-06T08:34:51;4.00;;;3.47;;
28762;SDS011;15918;51.270;6.522;2023-08-06T08:37:16;3.90;;;3.50;;
28762;SDS011;15918;51.270;6.522;2023-08-06T08:39:42;3.85;;;3.47;;
28762;SDS011;15918;51.270;6.522;2023-08-06T08:42:08;3.83;;;3.50;;
28762;SDS011;15918;51.270;6.522;2023-08-06T08:44:35;3.92;;;3.63;;
28762;SDS011;15918;51.270;6.522;2023-08-06T08:47:04;5.15;;;3.25;;
28762;SDS011;15918;51.270;6.522;2023-08-06T08:49:36;3.20;;;2.83;;
28762;SDS011;15918;51.270;6.522;2023-08-06T08:52:02;4.78;;;3.08;;
28762;SDS011;15918;51.270;6.522;2023-08-06T08:54:33;4.70;;;2.80;;
28762;SDS011;15918;51.270;6.522;2023-08-06T08:57:00;6.45;;;2.92;;
28762;SDS011;15918;51.270;6.522;2023-08-06T08:59:26;3.35;;;2.70;;
28762;SDS011;15918;51.270;6.522;2023-08-06T09:01:52;4.68;;;3.00;;
28762;SDS011;15918;51.270;6.522;2023-08-06T09:04:19;2.97;;;2.70;;
28762;SDS011;15918;51.270;6.522;2023-08-06T09:06:47;3.33;;;2.28;;
28762;SDS011;15918;51.270;6.522;2023-08-06T09:09:40;4.30;;;2.50;;
28762;SDS011;15918;51.270;6.522;2023-08-06T09:12:07;5.47;;;2.60;;
28762;SDS011;15918;51.270;6.522;2023-08-06T09:14:42;5.80;;;3.28;;
28762;SDS011;15918;51.270;6.522;2023-08-06T09:17:08;7.18;;;2.72;;
28762;SDS011;15918;51.270;6.522;2023-08-06T09:19:35;3.50;;;2.92;;
28762;SDS011;15918;51.270;6.522;2023-08-06T09:22:01;5.55;;;2.70;;
28762;SDS011;15918;51.270;6.522;2023-08-06T09:24:27;4.53;;;3.20;;
28762;SDS011;15918;51.270;6.522;2023-08-06T09:26:53;3.38;;;3.08;;
28762;SDS011;15918;51.270;6.522;2023-08-06T09:29:19;5.13;;;2.80;;
28762;SDS011;15918;51.270;6.522;2023-08-06T09:31:48;3.88;;;2.75;;
28762;SDS011;15918;51.270;6.522;2023-08-06T09:34:18;4.47;;;1.98;;
28762;SDS011;15918;51.270;6.522;2023-08-06T09:36:48;4.18;;;2.28;;
28762;SDS011;15918;51.270;6.522;2023-08-06T09:39:30;2.60;;;2.33;;
28762;SDS011;15918;51.270;6.522;2023-08-06T09:41:57;2.88;;;2.10;;
28762;SDS011;15918;51.270;6.522;2023-08-06T09:44:24;3.10;;;2.10;;
28762;SDS011;15918;51.270;6.522;2023-08-06T09:46:51;6.93;;;2.50;;
28762;SDS011;15918;51.270;6.522;2023-08-06T09:49:19;4.03;;;1.70;;
28762;SDS011;15918;51.270;6.522;2023-08-06T09:51:47;5.13;;;2.13;;
28762;SDS011;15918;51.270;6.522;2023-08-06T09:54:16;2.25;;;1.70;;
28762;SDS011;15918;51.270;6.522;2023-08-06T09:56:42;2.45;;;1.60;;
28762;SDS011;15918;51.270;6.522;2023-08-06T09:59:08;2.60;;;1.80;;
28762;SDS011;15918;51.270;6.522;2023-08-06T10:01:34;2.10;;;1.70;;
28762;SDS011;15918;51.270;6.522;2023-08-06T10:04:05;2.22;;;1.70;;
28762;SDS011;15918;51.270;6.522;2023-08-06T10:06:35;1.50;;;1.40;;
28762;SDS011;15918;51.270;6.522;2023-08-06T10:09:01;1.27;;;1.20;;
28762;SDS011;15918;51.270;6.522;2023-08-06T10:11:27;1.77;;;1.38;;
28762;SDS011;15918;51.270;6.522;2023-08-06T10:14:02;2.00;;;1.33;;
28762;SDS011;15918;51.270;6.522;2023-08-06T10:16:32;1.58;;;1.48;;
28762;SDS011;15918;51.270;6.522;2023-08-06T10:18:58;2.47;;;2.10;;
28762;SDS011;15918;51.270;6.522;2023-08-06T10:21:26;1.20;;;1.20;;
28762;SDS011;15918;51.270;6.522;2023-08-06T10:23:55;1.58;;;1.42;;
28762;SDS011;15918;51.270;6.522;2023-08-06T10:26:25;1.33;;;1.23;;
28762;SDS011;15918;51.270;6.522;2023-08-06T10:28:54;1.70;;;0.95;;
28762;SDS011;15918;51.270;6.522;2023-08-06T10:31:20;1.20;;;0.80;;
28762;SDS011;15918;51.270;6.522;2023-08-06T10:34:05;2.25;;;1.13;;
28762;SDS011;15918;51.270;6.522;2023-08-06T10:36:32;1.83;;;1.50;;
28762;SDS011;15918;51.270;6.522;2023-08-06T10:38:58;1.48;;;1.38;;
28762;SDS011;15918;51.270;6.522;2023-08-06T10:41:29;2.58;;;1.73;;
28762;SDS011;15918;51.270;6.522;2023-08-06T10:44:05;2.63;;;1.83;;
28762;SDS011;15918;51.270;6.522;2023-08-06T10:46:35;2.78;;;2.53;;
28762;SDS011;15918;51.270;6.522;2023-08-06T10:49:01;2.50;;;2.25;;
28762;SDS011;15918;51.270;6.522;2023-08-06T10:51:28;2.53;;;2.28;;
28762;SDS011;15918;51.270;6.522;2023-08-06T10:53:54;2.17;;;1.88;;
28762;SDS011;15918;51.270;6.522;2023-08-06T10:56:21;2.70;;;2.30;;
28762;SDS011;15918;51.270;6.522;2023-08-06T10:58:48;2.42;;;1.80;;
28762;SDS011;15918;51.270;6.522;2023-08-06T11:01:15;5.18;;;1.73;;
28762;SDS011;15918;51.270;6.522;2023-08-06T11:03:41;1.90;;;1.70;;
28762;SDS011;15918;51.270;6.522;2023-08-06T11:06:08;1.73;;;1.50;;
28762;SDS011;15918;51.270;6.522;2023-08-06T11:08:36;1.90;;;1.50;;
28762;SDS011;15918;51.270;6.522;2023-08-06T11:11:12;1.70;;;1.60;;
28762;SDS011;15918;51.270;6.522;2023-08-06T11:13:39;1.70;;;1.60;;
28762;SDS011;15918;51.270;6.522;2023-08-06T11:16:12;3.58;;;2.85;;
28762;SDS011;15918;51.270;6.522;2023-08-06T11:18:43;4.47;;;2.85;;
28762;SDS011;15918;51.270;6.522;2023-08-06T11:21:09;3.65;;;3.33;;
28762;SDS011;15918;51.270;6.522;2023-08-06T11:23:36;4.30;;;3.40;;
28762;SDS011;15918;51.270;6.522;2023-08-06T11:26:02;4.68;;;4.28;;
28762;SDS011;15918;51.270;6.522;2023-08-06T11:28:28;4.40;;;4.10;;
28762;SDS011;15918;51.270;6.522;2023-08-06T11:30:54;4.68;;;4.13;;
28762;SDS011;15918;51.270;6.522;2023-08-06T11:33:25;5.72;;;3.85;;
28762;SDS011;15918;51.270;6.522;2023-08-06T11:35:55;4.78;;;4.03;;
28762;SDS011;15918;51.270;6.522;2023-08-06T11:38:22;7.35;;;4.55;;
28762;SDS011;15918;51.270;6.522;2023-08-06T11:40:50;6.15;;;4.50;;
28762;SDS011;15918;51.270;6.522;2023-08-06T11:43:16;5.70;;;4.88;;
28762;SDS011;15918;51.270;6.522;2023-08-06T11:45:43;7.95;;;4.80;;
28762;SDS011;15918;51.270;6.522;2023-08-06T11:48:09;4.90;;;4.45;;
28762;SDS011;15918;51.270;6.522;2023-08-06T11:50:38;5.65;;;4.72;;
28762;SDS011;15918;51.270;6.522;2023-08-06T11:53:03;8.13;;;6.13;;
28762;SDS011;15918;51.270;6.522;2023-08-06T11:55:30;6.13;;;5.53;;
28762;SDS011;15918;51.270;6.522;2023-08-06T11:57:56;6.85;;;5.10;;
28762;SDS011;15918;51.270;6.522;2023-08-06T12:00:25;6.68;;;4.25;;
28762;SDS011;15918;51.270;6.522;2023-08-06T12:02:51;7.28;;;4.57;;
28762;SDS011;15918;51.270;6.522;2023-08-06T12:05:19;5.68;;;3.88;;
28762;SDS011;15918;51.270;6.522;2023-08-06T12:07:51;6.45;;;3.45;;
28762;SDS011;15918;51.270;6.522;2023-08-06T12:10:20;8.27;;;4.18;;
28762;SDS011;15918;51.270;6.522;2023-08-06T12:12:47;4.10;;;3.70;;
28762;SDS011;15918;51.270;6.522;2023-08-06T12:15:13;4.85;;;3.65;;
28762;SDS011;15918;51.270;6.522;2023-08-06T12:17:39;5.00;;;3.80;;
28762;SDS011;15918;51.270;6.522;2023-08-06T12:20:05;5.40;;;3.58;;
28762;SDS011;15918;51.270;6.522;2023-08-06T12:22:32;4.97;;;3.97;;
28762;SDS011;15918;51.270;6.522;2023-08-06T12:25:04;5.20;;;3.88;;
28762;SDS011;15918;51.270;6.522;2023-08-06T12:27:33;4.85;;;3.65;;
28762;SDS011;15918;51.270;6.522;2023-08-06T12:30:02;4.75;;;3.88;;
28762;SDS011;15918;51.270;6.522;2023-08-06T12:32:29;4.88;;;3.65;;
28762;SDS011;15918;51.270;6.522;2023-08-06T12:34:54;5.20;;;3.63;;
28762;SDS011;15918;51.270;6.522;2023-08-06T12:37:20;4.60;;;3.38;;
28762;SDS011;15918;51.270;6.522;2023-08-06T12:39:46;3.95;;;2.80;;
28762;SDS011;15918;51.270;6.522;2023-08-06T12:42:12;3.65;;;2.60;;
28762;SDS011;15918;51.270;6.522;2023-08-06T12:44:37;4.78;;;2.63;;
28762;SDS011;15918;51.270;6.522;2023-08-06T12:47:03;3.17;;;2.88;;
28762;SDS011;15918;51.270;6.522;2023-08-06T12:49:29;3.15;;;2.88;;
28762;SDS011;15918;51.270;6.522;2023-08-06T12:51:56;3.33;;;3.03;;
28762;SDS011;15918;51.270;6.522;2023-08-06T12:54:23;3.22;;;2.92;;
28762;SDS011;15918;51.270;6.522;2023-08-06T12:56:49;3.47;;;3.00;;
28762;SDS011;15918;51.270;6.522;2023-08-06T12:59:15;4.38;;;2.97;;
28762;SDS011;15918;51.270;6.522;2023-08-06T13:01:42;4.70;;;3.05;;
28762;SDS011;15918;51.270;6.522;2023-08-06T13:04:08;4.00;;;3.05;;
28762;SDS011;15918;51.270;6.522;2023-08-06T13:06:34;4.28;;;3.08;;
28762;SDS011;15918;51.270;6.522;2023-08-06T13:09:04;7.22;;;4.25;;
28762;SDS011;15918;51.270;6.522;2023-08-06T13:11:33;5.10;;;3.72;;
28762;SDS011;15918;51.270;6.522;2023-08-06T13:14:06;4.20;;;3.75;;
28762;SDS011;15918;51.270;6.522;2023-08-06T13:16:34;7.68;;;4.30;;
28762;SDS011;15918;51.270;6.522;2023-08-06T13:19:00;6.18;;;4.60;;
28762;SDS011;15918;51.270;6.522;2023-08-06T13:21:31;5.80;;;4.63;;
28762;SDS011;15918;51.270;6.522;2023-08-06T13:23:59;5.43;;;4.32;;
28762;SDS011;15918;51.270;6.522;2023-08-06T13:26:26;8.93;;;5.00;;
28762;SDS011;15918;51.270;6.522;2023-08-06T13:28:52;7.10;;;4.68;;
28762;SDS011;15918;51.270;6.522;2023-08-06T13:31:18;4.68;;;3.90;;
28762;SDS011;15918;51.270;6.522;2023-08-06T13:33:43;5.32;;;4.10;;
28762;SDS011;15918;51.270;6.522;2023-08-06T13:36:09;4.10;;;3.38;;
28762;SDS011;15918;51.270;6.522;2023-08-06T13:38:34;5.05;;;4.13;;
28762;SDS011;15918;51.270;6.522;2023-08-06T13:41:00;4.38;;;3.55;;
28762;SDS011;15918;51.270;6.522;2023-08-06T13:43:27;4.97;;;3.50;;
28762;SDS011;15918;51.270;6.522;2023-08-06T13:45:53;5.20;;;3.58;;
28762;SDS011;15918;51.270;6.522;2023-08-06T13:48:18;5.40;;;4.00;;
28762;SDS011;15918;51.270;6.522;2023-08-06T13:50:44;6.78;;;3.97;;
28762;SDS011;15918;51.270;6.522;2023-08-06T13:53:10;6.38;;;4.00;;
28762;SDS011;15918;51.270;6.522;2023-08-06T13:55:35;6.15;;;4.35;;
28762;SDS011;15918;51.270;6.522;2023-08-06T13:58:01;4.35;;;3.60;;
28762;SDS011;15918;51.270;6.522;2023-08-06T14:00:26;6.35;;;4.40;;
28762;SDS011;15918;51.270;6.522;2023-08-06T14:02:52;6.65;;;4.00;;
28762;SDS011;15918;51.270;6.522;2023-08-06T14:05:18;5.65;;;4.20;;
28762;SDS011;15918;51.270;6.522;2023-08-06T14:07:43;5.97;;;3.83;;
28762;SDS011;15918;51.270;6.522;2023-08-06T14:10:09;3.83;;;3.53;;
28762;SDS011;15918;51.270;6.522;2023-08-06T14:12:34;6.55;;;4.00;;
28762;SDS011;15918;51.270;6.522;2023-08-06T14:15:01;4.78;;;3.80;;
28762;SDS011;15918;51.270;6.522;2023-08-06T14:17:28;5.70;;;3.80;;
28762;SDS011;15918;51.270;6.522;2023-08-06T14:19:54;6.80;;;4.15;;
28762;SDS011;15918;51.270;6.522;2023-08-06T14:22:19;8.10;;;3.75;;
28762;SDS011;15918;51.270;6.522;2023-08-06T14:24:45;6.93;;;3.10;;
28762;SDS011;15918;51.270;6.522;2023-08-06T14:27:12;4.93;;;3.45;;
28762;SDS011;15918;51.270;6.522;2023-08-06T14:29:37;4.03;;;3.20;;
28762;SDS011;15918;51.270;6.522;2023-08-06T14:32:03;6.47;;;3.75;;
28762;SDS011;15918;51.270;6.522;2023-08-06T14:34:29;4.35;;;3.42;;
28762;SDS011;15918;51.270;6.522;2023-08-06T14:36:54;4.60;;;3.28;;
28762;SDS011;15918;51.270;6.522;2023-08-06T14:39:20;4.15;;;3.45;;
28762;SDS011;15918;51.270;6.522;2023-08-06T14:41:46;4.45;;;3.10;;
28762;SDS011;15918;51.270;6.522;2023-08-06T14:44:12;5.15;;;3.22;;
28762;SDS011;15918;51.270;6.522;2023-08-06T14:46:37;7.38;;;3.83;;
28762;SDS011;15918;51.270;6.522;2023-08-06T14:49:03;5.40;;;3.20;;